Terminal Aerodrome Forecast
Issued by NWS

Home | Current Version | Previous Version | Text Only | Print | Product List | Glossary On
Versions: 1 2 3 4 5 6 7 8 9 10 11 12 13 14 15 16 17 18 19 20 21 22 23 24 25 26 27 28
000
FTAK31 PANC 222336
TAFAGK
TAF
PAGK 222336Z 2300/2324 00000KT P6SM VCTS SCT060CB
     FM230900 VRB03KT P6SM SCT001
     FM231200 00000KT 1/2SM FG VV001
     FM231800 VRB03KT P6SM VCFG SCT001
     FM232100 VRB03KT P6SM VCSH SCT060=

USA.gov is the U.S. government's official web portal to all federal, state and local government web resources and services.